Pelham, NH

7:59 PM EDT on July 30, 2015 (GMT -0400)
Independence Dr | | Change Station
CLOSE
Current Station
Personal Weather Station
Location: Pelham, NH
Elevation: 180 ft
Nearby Weather Stations

Elev 180 ft 42.74 °N, 71.34 °W | Updated 4 seconds ago

Rain
Rain
73.8 °F
Feels Like 71 °F
N
0.0
Wind Variable Wind from WNW
Gusts 0.0 mph

Today
High -- | Low -- °F
--% Chance of Precip.
Yesterday
High -- | Low -- °F
Precip. -- in
5:34 AM 8:08 PM
Full, 100% visible
Pressure 29.81 in
Visibility 7.0 miles
Clouds Scattered Clouds 6500 ft
Mostly Cloudy 8000 ft
Overcast 9500 ft
Heat Index 71 °F
Dew Point 72 °F
Humidity 95%
Rainfall 0.18 in
Snow Depth Not available.
UV 0.0 out of 12
Pollen 5.10 out of 12
Air Quality Not available.
Flu Activity Not available.
METAR KASH 302301Z VRB03KT 7SM RA SCT065 BKN080 OVC095 23/23 A2979 RMK AO2 TSB2205E2220RAE2214B2247 SLP095 P0004 T02330228

More Conditions Fewer Conditions

Pressure 29.81 in
Visibility 7.0 miles
Clouds Scattered Clouds 6500 ft
Mostly Cloudy 8000 ft
Overcast 9500 ft
Heat Index 71 °F
Dew Point 72 °F
Humidity 95%
Rainfall 0.18 in
Snow Depth Not available.
UV 0.0 out of 12
Pollen 5.10 out of 12
Air Quality Not available.
Flu Activity Not available.
METAR KASH 302301Z VRB03KT 7SM RA SCT065 BKN080 OVC095 23/23 A2979 RMK AO2 TSB2205E2220RAE2214B2247 SLP095 P0004 T02330228

More Conditions Fewer Conditions

10-Day Weather Forecast

×

Almanac

Astronomy

Jul. 30, 2015 Rise Set
Actual Time
Civil Twilight
Nautical Twilight
Astronomical Twilight
Moon
Length of Visible Light
Length of Day
Tomorrow will be .
, % of the Moon is Illuminated

Today's Extremes

State Highs State Lows

Community

WunderPhotos

Upload Photos

1,842,543 photos uploaded!

WunderBlogs® & News

Nearby

Air Quality

  Air Quality AQ Index Pollutant
Not available.

Snow Depth

Station Depth Elevation

Earthquake Activity

City Distance Mag. Time & Date
Minimum magnitude displayed is 2.5.

Coastal Water Temperatures

Place Temperature

Stations

Nearby Weather Stations

Station Location Temp. Windchill Dew Point Humidity Wind Precip. Elev Updated Type